Weather observations for the past three days for
Richard I. Bong Airport
Imperial (Metric)
Date Time (cdt) Wind (mph) Vis. (mi.) Weather Sky Cond. Temperature (ºF) Relative Humidity Wind Chill (°F) Heat Index (°F) Pressure Precipitation (in)
Air Dwpt 6 hour altimeter (in) sea level (mb) 1 hr 3 hr 6 hr
Max. Min.
01 10:15 SW 8 10.00 Fair CLR 72.7 59.4 63% 29.94 0.0
01 09:55 SW 7 10.00 Fair CLR 71.2 59.4 66% 29.94 0.0
01 09:35 S 6 10.00 Fair CLR 69.4 58.8 69% 29.94 0.0
01 09:15 SW 8 10.00 Fair CLR 68 58.8 73% 29.94 0.0
01 08:55 SW 6 10.00 Fair CLR 66.2 59 78% 29.94 0.0
01 08:35 SW 6 10.00 Fair CLR 64 58.1 81% 29.94 0.0
01 08:15 SW 6 10.00 Fair CLR 62.4 57.6 84% 29.93 0.0
01 07:55 SW 7 10.00 Fair CLR 61.2 56.8 86% 29.93 0.0
01 07:35 SW 7 10.00 Fair CLR 60.4 56.5 87% 29.92 0.0
01 07:15 SW 7 10.00 Fair CLR 59.5 56.1 89% 29.92 0.0
01 06:55 SW 6 10.00 Fair CLR 59 55.9 62.6 58.1 90% 29.91 0.0
01 06:35 SW 7 10.00 Fair CLR 59 56.1 90% 29.9 0.0
01 06:15 S 8 10.00 Fair CLR 58.1 55.9 93% 29.9 0.0
01 05:55 SW 6 10.00 Fair CLR 59.2 56.5 91% 29.89 0.0
01 05:35 SW 8 10.00 Fair CLR 59.4 56.8 91% 29.89 0.0
01 05:15 SW 7 10.00 Fair CLR 59.9 57.2 91% 29.88 0.0
01 04:55 SW 8 10.00 Fair CLR 59.9 57.6 92% 29.88 0.0
01 04:35 SW 6 10.00 Fair CLR 59.9 58.1 94% 29.88 0.0
01 04:15 SW 5 10.00 Fair CLR 59.9 58.1 94% 29.88 0.0
01 03:55 S 6 10.00 Fair CLR 59.9 58.1 94% 29.88 0.0
01 03:35 SW 6 10.00 Fair CLR 60.3 58.3 93% 29.88 0.0
01 03:15 SW 6 10.00 Fair CLR 60.1 58.3 94% 29.88 0.0
01 02:55 SW 7 10.00 Fair CLR 60.3 58.3 93% 29.89 0.0
01 02:35 SW 8 10.00 Fair CLR 60.3 58.5 94% 29.89 0.0
01 02:15 SW 8 10.00 Fair CLR 60.4 58.6 94% 29.89 0.0
01 01:55 SW 7 10.00 Fair CLR 60.1 58.3 94% 29.89 0.0
01 01:35 SW 5 10.00 Fair CLR 61 59 93% 29.9 0.0
01 01:15 SW 5 10.00 Fair CLR 62.1 59.7 92% 29.9 0.0
01 00:55 SW 6 10.00 Fair CLR 62.1 59.9 77.9 58.3 93% 29.89 0.0
01 00:35 SW 5 10.00 Fair CLR 62.6 60.1 92% 29.89 0.0
01 00:15 SW 5 10.00 Fair CLR 62.8 60.3 92% 29.89 0.0
31 23:55 SW 5 10.00 Fair CLR 63.1 60.4 91% 29.89 0.0
31 23:35 SW 6 10.00 Fair CLR 63.1 60.8 92% 29.89 0.0
31 23:15 SW 6 10.00 Fair CLR 59 57.4 94% 29.88 0.0
31 22:55 SW 3 10.00 Fair CLR 63.5 59.9 88% 29.88 0.0
31 22:35 SW 6 10.00 Fair CLR 61.5 58.6 90% 29.87 0.0
31 22:15 S 5 10.00 Fair CLR 59.7 57.2 91% 29.87 0.0
31 21:55 SW 3 10.00 Fair CLR 63.3 59.9 89% 29.87 0.0
31 21:35 SW 5 10.00 Fair CLR 63.5 62.6 97% 29.87 0.0
31 21:15 SW 3 2.50 Fog/Mist CLR 63 61.9 96% 29.87 0.0
31 20:55 Calm 1.25 Fog/Mist VV007 63.9 62.6 96% 29.87 0.0
31 20:35 Calm 10.00 Fair CLR 65.8 64.8 96% 29.86 0.0
31 20:15 Calm 5.00 Fog/Mist CLR 66.7 65.3 95% 29.85 0.0
31 19:55 Calm 10.00 Fair CLR 69.4 66.9 92% 29.85 0.0
31 19:35 Calm 10.00 Fair CLR 73.2 68.9 86% 29.85 0.0
31 19:15 Calm 10.00 Fair CLR 76.6 69.1 78% 78 29.84 0.0
31 18:55 Calm 10.00 Fair CLR 77.9 68.7 83.3 73.4 73% 80 29.84 0.0
31 18:35 Calm 10.00 Fair CLR 79.3 68.7 70% 82 29.84 0.0
31 18:15 Calm 10.00 Fair CLR 81 69.1 67% 84 29.84 0.0
31 17:55 Calm 10.00 Fair CLR 82.6 69.3 64% 86 29.83 0.0
31 17:35 Calm 10.00 Fair CLR 82.6 68.9 63% 86 29.83 0.0
31 17:15 Calm 10.00 Fair CLR 82 69.3 65% 86 29.83 0.0
31 16:55 Calm 10.00 Fair CLR 81.5 68.5 65% 85 29.84 0.0
31 16:35 N 3 10.00 Fair CLR 80.1 68.4 68% 83 29.84 0.0
31 16:15 NE 3 10.00 Fair CLR 79.7 68.2 68% 82 29.84 0.0
31 15:55 NE 3 10.00 Fair CLR 77.7 67.3 70% 80 29.84 0.0
31 15:35 Calm 10.00 Fair CLR 76.8 67.1 72% 79 29.84 0.0
31 15:15 NE 5 10.00 Fair CLR 76.3 66.9 73% 78 29.84 0.0
31 14:55 NE 6 10.00 Fair CLR 78.6 68.9 72% 81 29.84 0.0
31 14:35 E 3 10.00 Fair CLR 79 68.7 71% 81 29.84 0.0
31 14:15 NE 3 10.00 Fair CLR 76.5 67.8 75% 78 29.84 0.0
31 13:55 Calm 10.00 Partly Cloudy SCT012 SCT017 SCT022 75 67.3 77% 76 29.84 0.0
31 13:15 Calm 10.00 Overcast OVC012 73.4 67.8 83% 29.84 0.0
31 12:55 Calm 10.00 Overcast OVC012 73.8 67.3 73.9 62.1 80% 29.84 0.0
31 12:35 NE 3 10.00 Overcast BKN007 OVC014 73 67.3 82% 29.84 0.0
31 12:15 W 3 10.00 Overcast OVC007 71.4 67.3 87% 29.84 0.0
31 11:55 Calm 10.00 Overcast OVC007 70.7 66.7 87% 29.84 0.0
31 11:35 Calm 10.00 Overcast OVC005 69.8 66.4 89% 29.83 0.0
31 11:15 Calm 7.00 Overcast OVC005 68.7 66.2 92% 29.83 0.0
31 10:55 Calm 7.00 Overcast OVC003 67.5 65.8 95% 29.83 0.0
31 10:35 Calm 4.00 Fog/Mist OVC003 67.1 65.7 95% 29.82 0.0
31 10:15 Calm 4.00 Fog/Mist OVC003 66.4 65.7 98% 29.82 0.0
31 09:55 W 3 3.00 Fog/Mist OVC003 65.5 64.6 97% 29.81 0.0
31 09:35 Calm 3.00 Fog/Mist OVC003 64.6 64 98% 29.81 0.0
31 09:15 Calm 1.75 Fog/Mist OVC003 63.9 63.5 99% 29.81 0.0
31 08:55 Calm 1.75 Fog/Mist OVC003 63.7 63.1 98% 29.8 0.0
31 08:35 Calm 1.50 Fog/Mist OVC003 63.3 62.8 98% 29.79 0.0
31 08:15 E 5 1.50 Fog/Mist OVC003 63.1 62.6 98% 29.8 0.0
31 07:55 E 3 1.50 Fog/Mist OVC003 62.6 61.9 98% 29.81 0.0
31 07:35 NE 5 1.25 Fog/Mist OVC003 62.1 61.7 99% 29.8 0.0
31 07:15 NE 5 1.75 Fog/Mist OVC003 62.1 61.3 98% 29.8 0.0
31 06:55 N 5 3.00 Fog/Mist OVC003 62.1 61.5 62.6 60.8 98% 29.79 0.0
31 06:35 Calm 3.00 Fog/Mist OVC003 62.1 61.3 98% 29.79 0.0
31 06:15 NE 7 4.00 Fog/Mist OVC003 61.9 61.2 98% 29.79 0.0
31 05:55 E 5 5.00 Fog/Mist OVC003 62.1 61.7 99% 29.79 0.0
31 05:35 NE 8 4.00 Fog/Mist OVC003 62.1 61.7 99% 29.79 0.0
31 05:15 E 12 5.00 Fog/Mist OVC003 62.1 61.7 99% 29.78 0.0
31 04:55 E 10 G 17 5.00 Light Rain OVC003 62.1 61.7 99% 29.8 0.0
31 04:35 NE 10 4.00 Rain OVC003 62.2 61.7 98% 29.79 0.0
31 04:20 NE 8 4.00 Light Rain OVC003 62.6 61.9 98% 29.8 0.0
31 03:55 NE 5 0.50 Fog OVC003 61.5 60.8 98% 29.79 0.0
31 03:35 NE 5 0.50 Fog OVC003 60.8 59.9 97% 29.79 0.0
31 03:15 N 7 0.50 Fog OVC003 60.8 59.9 97% 29.79 0.0
31 02:55 NE 7 0.75 Fog/Mist OVC003 61 60.3 98% 29.79 0.0
31 02:35 NE 7 1.25 Fog/Mist OVC003 61.2 60.4 98% 29.81 0.0
31 02:15 NE 8 2.50 Fog/Mist OVC003 61.7 60.8 97% 29.8 0.0
31 01:55 E 8 4.00 Fog/Mist OVC003 62.2 61.7 98% 29.81 0.0
31 01:35 E 13 G 17 5.00 Fog/Mist OVC003 62.2 61.5 98% 29.82 0.0
31 00:55 NE 9 7.00 Overcast OVC003 62.1 61.2 62.8 61.5 97% 29.86 0.0
31 00:35 NE 10 G 20 5.00 Light Rain OVC003 62.6 61.7 97% 29.86 0.0
31 00:15 NE 9 G 17 7.00 Light Rain OVC003 62.8 61.9 97% 29.86 0.0
30 23:55 NE 14 4.00 Light Rain OVC003 61.7 60.8 97% 29.87 0.0
30 23:35 NE 13 G 18 5.00 Rain OVC003 62.1 61 96% 29.86 0.0
30 23:20 NE 12 5.00 Light Rain OVC003 62.1 61 96% 29.86 0.0
30 22:55 NE 6 7.00 Overcast OVC003 62.1 61 96% 29.88 0.0
30 22:35 NE 9 7.00 Overcast OVC003 61.9 60.8 96% 29.87 0.0
30 22:15 NE 10 7.00 Overcast OVC003 61.7 60.4 96% 29.88 0.0
30 21:55 NE 9 7.00 Overcast OVC003 61.7 60.4 96% 29.87 0.0
30 21:35 NE 10 7.00 Overcast OVC003 61.7 60.4 96% 29.87 0.0
30 21:15 NE 9 G 17 7.00 Overcast OVC003 61.7 60.4 96% 29.88 0.0
30 20:55 NE 12 G 16 7.00 Overcast OVC003 61.9 60.8 96% 29.87 0.0
30 20:35 NE 12 G 17 10.00 Overcast OVC003 61.9 60.8 96% 29.87 0.0
30 20:15 NE 15 G 21 10.00 Overcast OVC003 62.2 61 96% 29.87 0.0
30 19:55 NE 13 10.00 Overcast OVC003 62.6 61.2 95% 29.87 0.0
30 19:35 NE 10 G 18 7.00 Overcast OVC003 62.2 61 96% 29.88 0.0
30 19:15 NE 10 7.00 Overcast OVC003 62.2 60.8 95% 29.89 0.0
30 18:55 NE 12 G 17 10.00 Overcast OVC003 62.2 60.8 64.9 62.2 95% 29.88 0.0
30 18:35 NE 13 G 17 10.00 Overcast OVC003 62.6 60.8 94% 29.89 0.0
30 18:15 NE 12 G 20 10.00 Overcast OVC003 62.6 60.8 94% 29.9 0.0
30 17:55 NE 13 G 18 10.00 Overcast OVC003 63.1 61 93% 29.89 0.0
30 17:35 NE 13 G 21 10.00 Overcast OVC003 63.7 61.2 92% 29.89 0.0
30 17:15 NE 13 G 18 10.00 Overcast OVC003 63.5 61.2 92% 29.89 0.0
30 16:55 NE 13 G 16 10.00 Overcast OVC003 63.9 61.2 91% 29.9 0.0
30 16:35 NE 15 G 22 10.00 Overcast OVC005 63.7 61.2 92% 29.89 0.0
30 16:15 NE 13 G 20 10.00 Overcast OVC005 63.3 61 92% 29.91 0.0
30 15:55 NE 16 G 23 10.00 Overcast OVC005 63.1 60.8 92% 29.91 0.0
30 15:35 NE 13 G 23 10.00 Overcast OVC005 63.7 60.8 90% 29.91 0.0
30 15:15 NE 16 G 24 10.00 Overcast OVC005 64.6 61.2 89% 29.91 0.0
30 14:55 NE 14 G 23 10.00 Overcast OVC003 64 61.2 90% 29.91 0.0
30 14:35 NE 13 G 18 10.00 Overcast OVC003 63 61.2 94% 29.91 0.0
30 14:15 NE 16 G 22 10.00 Overcast OVC003 63.5 61.2 92% 29.9 0.0
30 13:55 NE 14 G 22 10.00 Overcast OVC003 64 61.7 92% 29.91 0.0
30 13:35 NE 13 G 17 10.00 Overcast OVC003 64.8 61.9 90% 29.91 0.0
30 13:15 NE 14 G 21 10.00 Overcast OVC003 63.9 62.1 94% 29.91 0.0
30 12:55 NE 10 G 17 7.00 Overcast OVC003 62.6 61.3 63.5 62.1 96% 29.92 0.0
30 12:35 NE 14 G 18 10.00 Overcast OVC003 63 61.5 95% 29.92 0.0
30 12:15 NE 10 G 22 10.00 Overcast OVC003 63 61.5 95% 29.93 0.0
30 11:55 NE 9 G 17 10.00 Overcast OVC003 63.5 62.2 96% 29.92 0.0
30 11:35 NE 12 G 17 7.00 Overcast OVC003 62.6 61.5 96% 29.92 0.0
30 11:15 NE 9 7.00 Light Rain OVC003 62.6 61.3 96% 29.92 0.0
30 10:55 NE 12 7.00 Light Rain OVC003 62.6 61.7 97% 29.93 0.0
30 10:35 NE 10 G 16 2.00 Light Rain OVC003 62.2 61.2 96% 29.93 0.0
30 10:15 NE 8 7.00 Light Rain OVC003 62.6 61.3 96% 29.94 0.0
30 09:55 NE 8 10.00 Light Drizzle OVC003 63 61.5 95% 29.94 0.0
30 09:35 NE 9 G 16 10.00 Overcast OVC003 62.6 61.3 96% 29.92 0.0
30 09:15 NE 9 10.00 Overcast OVC003 62.6 61.7 97% 29.91 0.0
30 08:55 NE 9 10.00 Overcast OVC003 62.6 61.7 97% 29.91 0.0
30 08:35 NE 9 5.00 Fog/Mist OVC003 62.4 61.7 98% 29.91 0.0
30 08:15 NE 10 4.00 Fog/Mist OVC003 62.6 61.7 97% 29.91 0.0
30 07:55 NE 9 2.00 Fog/Mist OVC003 62.6 61.7 97% 29.92 0.0
30 07:35 NE 7 1.75 Fog/Mist OVC003 62.6 61.7 97% 29.93 0.0
30 07:15 NE 9 2.00 Fog/Mist OVC003 62.6 61.7 97% 29.91 0.0
30 06:55 NE 8 3.00 Fog/Mist OVC003 62.6 61.7 62.6 62.1 97% 29.91 0.0
30 06:35 NE 6 10.00 Overcast OVC003 62.6 61.7 97% 29.91 0.0
30 06:15 NE 9 10.00 Overcast OVC003 62.6 61.7 97% 29.89 0.0
30 05:55 NE 9 7.00 Overcast OVC003 62.6 61.7 97% 29.9 0.0
30 05:35 NE 7 7.00 Overcast OVC003 62.6 61.7 97% 29.9 0.0
30 05:15 NE 7 7.00 Overcast OVC003 62.4 61.5 97% 29.9 0.0
30 05:00 NE 7 5.00 Fog/Mist OVC003 62.2 61.3 97% 29.89 0.0
30 04:35 NE 7 10.00 Overcast OVC003 62.2 61.2 96% 29.89 0.0
30 04:15 NE 7 10.00 Overcast OVC003 62.2 61.2 96% 29.89 0.0
30 03:55 NE 6 10.00 Overcast OVC003 62.6 61.3 96% 29.89 0.0
30 03:35 NE 6 10.00 Overcast OVC003 62.6 61.7 97% 29.88 0.0
30 03:15 NE 5 10.00 Overcast OVC003 62.6 61.7 97% 29.89 0.0
30 02:55 NE 5 10.00 Overcast OVC003 62.6 61.7 97% 29.89 0.0
30 02:35 NE 7 10.00 Overcast OVC003 62.6 61.5 96% 29.89 0.0
30 02:15 NE 5 10.00 Overcast OVC005 62.6 61.3 96% 29.89 0.0
30 01:55 NE 3 10.00 Overcast OVC005 62.6 61.3 96% 29.9 0.0
30 01:35 E 7 10.00 Overcast OVC005 62.4 61.2 96% 29.91 0.0
30 01:15 NE 7 10.00 Overcast OVC005 62.2 61.2 96% 29.91 0.0
30 01:00 NE 5 10.00 Overcast OVC005 62.2 61 96% 29.92 0.0
30 00:35 NE 6 10.00 Overcast OVC005 62.1 61 96% 29.92 0.0
30 00:15 NE 7 10.00 Overcast OVC003 61.9 60.8 96% 29.93 0.0
29 23:55 NE 5 10.00 Overcast OVC003 61.7 60.8 97% 29.93 0.0
29 23:35 NE 5 10.00 Overcast OVC003 61.7 60.8 97% 29.92 0.0
29 23:15 NE 6 10.00 Overcast OVC003 61.7 60.4 96% 29.92 0.0
29 22:55 NE 7 10.00 Overcast OVC005 61.7 60.4 96% 29.92 0.0
29 22:35 NE 6 10.00 Overcast OVC005 61.7 60.4 96% 29.92 0.0
29 22:15 NE 6 10.00 Overcast OVC005 61.7 60.4 96% 29.91 0.0
29 21:55 NE 8 10.00 Overcast OVC005 61.7 60.8 97% 29.91 0.0
29 21:35 NE 5 10.00 Overcast OVC003 61.9 60.8 96% 29.92 0.0
29 21:15 NE 5 10.00 Overcast OVC003 61.9 60.8 96% 29.91 0.0
29 20:55 NE 5 10.00 Overcast OVC003 62.1 60.8 96% 29.91 0.0
29 20:35 NE 6 10.00 Overcast OVC003 62.2 61.2 96% 29.9 0.0
29 20:15 NE 6 10.00 Overcast OVC003 62.6 61.3 96% 29.89 0.0
29 19:55 NE 5 10.00 Overcast OVC003 62.8 61.7 96% 29.9 0.0
29 19:35 N 6 10.00 Overcast OVC003 63.5 62.2 96% 29.9 0.0
29 19:15 NE 3 7.00 Overcast OVC003 63.5 62.6 97% 29.9 0.0
29 18:55 NE 3 4.00 Fog/Mist BKN005 OVC027 63 61.9 67.5 62.2 96% 29.91 0.0
29 18:35 NE 5 5.00 Fog/Mist BKN005 BKN016 OVC027 62.6 61.5 96% 29.91 0.0
29 18:15 NE 6 4.00 Fog/Mist BKN005 OVC017 62.2 60.8 95% 29.91 0.0
29 17:55 NE 6 5.00 Fog/Mist BKN005 OVC021 62.6 60.8 94% 29.91 0.0
29 17:35 NE 7 5.00 Fog/Mist SCT005 BKN019 OVC025 62.6 60.4 93% 29.91 0.0
29 17:15 NE 8 10.00 Overcast SCT005 OVC025 62.6 60.3 92% 29.9 0.0
29 16:55 NE 7 10.00 Overcast SCT005 OVC031 62.8 60.3 92% 29.9 0.0
29 16:35 NE 6 10.00 Overcast SCT007 SCT021 OVC031 63 60.3 91% 29.9 0.0
29 16:15 NE 8 10.00 Overcast SCT007 BKN021 OVC040 63.9 60.8 90% 29.9 0.0
29 15:55 NE 7 10.00 Overcast SCT007 SCT023 OVC040 63.9 60.4 89% 29.91 0.0
29 15:40 NE 8 10.00 Overcast SCT023 OVC040 63.9 60.4 89% 29.91 0.0
29 15:15 NE 10 10.00 Overcast SCT010 BKN023 OVC044 65.7 60.8 84% 29.91 0.0
29 14:55 NE 8 10.00 Overcast SCT008 BKN025 OVC046 66.6 61.3 83% 29.91 0.0
29 14:35 NE 9 G 16 10.00 Overcast SCT008 BKN034 OVC041 66.2 61.3 84% 29.91 0.0
29 14:15 NE 10 10.00 Overcast BKN008 OVC026 64.9 60.8 87% 29.92 0.0
29 14:00 NE 8 10.00 Overcast BKN008 OVC023 65.7 61 85% 29.92 0.0
29 13:35 NE 9 10.00 Overcast BKN010 OVC021 64 60.1 87% 29.92 0.0
29 13:15 NE 8 10.00 Overcast SCT010 SCT013 OVC021 63.1 59.9 89% 29.93 0.0
29 12:55 NE 7 10.00 Overcast BKN013 OVC021 62.6 59.9 63.9 60.4 91% 29.93 0.0
29 12:35 NE 9 10.00 Overcast BKN009 OVC021 62.1 59.5 92% 29.93 0.0
29 12:15 NE 8 10.00 Overcast OVC009 62.1 59.2 90% 29.94 0.0
29 11:55 NE 8 10.00 Overcast OVC009 62.8 60.8 93% 29.94 0.0
29 11:35 NE 10 G 20 10.00 Light Rain OVC009 62.4 60.3 93% 29.94 0.0
29 11:15 NE 8 10.00 Light Rain SCT009 OVC014 62.2 60.4 94% 29.94 0.0
29 10:55 NE 10 G 16 10.00 Overcast SCT007 OVC012 63 61.5 95% 29.93 0.0
Date Time (cdt) Wind (mph) Vis. (mi.) Weather Sky Cond. Air Dwpt Max. Min. Relative Humidity Wind Chill (°F) Heat Index (°F) altimeter (in) sea level (mb) 1 hr 3 hr 6 hr
6 hour
Temperature (ºF) Pressure Precipitation (in)